sensor_id;sensor_type;location;lat;lon;timestamp;temperature;humidity
1678;DHT22;6034;46.864;15.216;2024-01-11T06:01:44;-3.50;99.90
1678;DHT22;6034;46.864;15.216;2024-01-11T06:04:12;-3.40;99.90
1678;DHT22;6034;46.864;15.216;2024-01-11T06:06:40;-3.40;99.90
1678;DHT22;6034;46.864;15.216;2024-01-11T06:09:07;-3.40;99.90
1678;DHT22;6034;46.864;15.216;2024-01-11T06:11:36;-3.50;99.90
1678;DHT22;6034;46.864;15.216;2024-01-11T06:14:03;-3.60;99.90
1678;DHT22;6034;46.864;15.216;2024-01-11T06:16:30;-3.60;99.90
1678;DHT22;6034;46.864;15.216;2024-01-11T06:19:00;-3.80;99.90
1678;DHT22;6034;46.864;15.216;2024-01-11T06:21:28;-3.70;99.90
1678;DHT22;6034;46.864;15.216;2024-01-11T06:23:55;-3.60;99.90
1678;DHT22;6034;46.864;15.216;2024-01-11T06:26:23;-3.70;99.90
1678;DHT22;6034;46.864;15.216;2024-01-11T06:28:50;-4.00;99.90
1678;DHT22;6034;46.864;15.216;2024-01-11T06:31:18;-4.00;99.90
1678;DHT22;6034;46.864;15.216;2024-01-11T06:33:45;-3.80;99.90
1678;DHT22;6034;46.864;15.216;2024-01-11T06:36:15;-3.90;99.90
1678;DHT22;6034;46.864;15.216;2024-01-11T06:38:42;-3.80;99.90
1678;DHT22;6034;46.864;15.216;2024-01-11T06:41:10;-3.80;99.90
1678;DHT22;6034;46.864;15.216;2024-01-11T06:43:37;-3.90;99.90
1678;DHT22;6034;46.864;15.216;2024-01-11T06:46:05;-3.90;99.90
1678;DHT22;6034;46.864;15.216;2024-01-11T06:48:32;-3.90;99.90
1678;DHT22;6034;46.864;15.216;2024-01-11T06:51:00;-3.90;99.90
1678;DHT22;6034;46.864;15.216;2024-01-11T06:53:34;-3.90;99.90
1678;DHT22;6034;46.864;15.216;2024-01-11T06:56:13;-3.90;99.90
1678;DHT22;6034;46.864;15.216;2024-01-11T06:58:41;-4.00;99.90
1678;DHT22;6034;46.864;15.216;2024-01-11T07:01:08;-4.00;99.90
1678;DHT22;6034;46.864;15.216;2024-01-11T07:03:37;-3.90;99.90
1678;DHT22;6034;46.864;15.216;2024-01-11T07:06:06;-3.80;99.90
1678;DHT22;6034;46.864;15.216;2024-01-11T07:08:34;-3.80;99.90
1678;DHT22;6034;46.864;15.216;2024-01-11T07:11:02;-3.70;99.90
1678;DHT22;6034;46.864;15.216;2024-01-11T07:13:29;-3.70;99.90
1678;DHT22;6034;46.864;15.216;2024-01-11T07:15:57;-3.70;99.90
1678;DHT22;6034;46.864;15.216;2024-01-11T07:18:25;-3.80;99.90
1678;DHT22;6034;46.864;15.216;2024-01-11T07:20:55;-3.70;99.90
1678;DHT22;6034;46.864;15.216;2024-01-11T07:23:23;-3.60;99.90
1678;DHT22;6034;46.864;15.216;2024-01-11T07:25:52;-3.60;99.90
1678;DHT22;6034;46.864;15.216;2024-01-11T07:28:19;-3.50;99.90
1678;DHT22;6034;46.864;15.216;2024-01-11T07:30:51;-3.50;99.90
1678;DHT22;6034;46.864;15.216;2024-01-11T07:33:19;-3.40;99.90
1678;DHT22;6034;46.864;15.216;2024-01-11T07:35:48;-3.40;99.90
1678;DHT22;6034;46.864;15.216;2024-01-11T07:38:19;-3.40;99.90
1678;DHT22;6034;46.864;15.216;2024-01-11T07:40:46;-3.40;99.90
1678;DHT22;6034;46.864;15.216;2024-01-11T07:43:15;-3.40;99.90
1678;DHT22;6034;46.864;15.216;2024-01-11T07:45:43;-3.30;99.90
1678;DHT22;6034;46.864;15.216;2024-01-11T07:48:11;-3.30;99.90
1678;DHT22;6034;46.864;15.216;2024-01-11T07:50:38;-3.50;99.90
1678;DHT22;6034;46.864;15.216;2024-01-11T07:53:06;-3.30;99.90
1678;DHT22;6034;46.864;15.216;2024-01-11T07:55:33;-3.20;99.90
1678;DHT22;6034;46.864;15.216;2024-01-11T07:58:01;-3.20;99.90
1678;DHT22;6034;46.864;15.216;2024-01-11T08:00:30;-3.20;99.90
1678;DHT22;6034;46.864;15.216;2024-01-11T08:02:57;-3.30;99.90
1678;DHT22;6034;46.864;15.216;2024-01-11T08:05:24;-3.10;99.90
1678;DHT22;6034;46.864;15.216;2024-01-11T08:07:53;-3.10;99.90
1678;DHT22;6034;46.864;15.216;2024-01-11T08:10:20;-2.90;99.90
1678;DHT22;6034;46.864;15.216;2024-01-11T08:12:48;-2.80;99.90
1678;DHT22;6034;46.864;15.216;2024-01-11T08:15:16;-2.80;99.90
1678;DHT22;6034;46.864;15.216;2024-01-11T08:17:45;-2.70;99.90
1678;DHT22;6034;46.864;15.216;2024-01-11T08:20:19;-2.60;99.90
1678;DHT22;6034;46.864;15.216;2024-01-11T08:22:47;-2.50;99.90
1678;DHT22;6034;46.864;15.216;2024-01-11T08:25:14;-2.40;99.90
1678;DHT22;6034;46.864;15.216;2024-01-11T08:27:48;-2.40;99.90
1678;DHT22;6034;46.864;15.216;2024-01-11T08:30:21;-2.50;99.90
1678;DHT22;6034;46.864;15.216;2024-01-11T08:32:50;-2.40;99.90
1678;DHT22;6034;46.864;15.216;2024-01-11T08:35:17;-2.50;99.90
1678;DHT22;6034;46.864;15.216;2024-01-11T08:37:45;-2.40;99.90
1678;DHT22;6034;46.864;15.216;2024-01-11T08:40:12;-2.20;99.90
1678;DHT22;6034;46.864;15.216;2024-01-11T08:42:40;-2.10;99.90
1678;DHT22;6034;46.864;15.216;2024-01-11T08:45:09;-1.90;99.90
1678;DHT22;6034;46.864;15.216;2024-01-11T08:47:43;-1.80;99.90
1678;DHT22;6034;46.864;15.216;2024-01-11T08:50:14;-1.70;99.90
1678;DHT22;6034;46.864;15.216;2024-01-11T08:52:42;-1.60;99.90
1678;DHT22;6034;46.864;15.216;2024-01-11T08:55:10;-1.50;99.90
1678;DHT22;6034;46.864;15.216;2024-01-11T08:57:38;-1.50;99.90
1678;DHT22;6034;46.864;15.216;2024-01-11T09:00:06;-1.50;99.90
1678;DHT22;6034;46.864;15.216;2024-01-11T09:02:34;-1.40;99.90
1678;DHT22;6034;46.864;15.216;2024-01-11T09:05:01;-1.30;99.90
1678;DHT22;6034;46.864;15.216;2024-01-11T09:07:32;-1.20;99.90
1678;DHT22;6034;46.864;15.216;2024-01-11T09:09:59;-1.40;99.90
1678;DHT22;6034;46.864;15.216;2024-01-11T09:12:27;-1.20;99.90
1678;DHT22;6034;46.864;15.216;2024-01-11T09:14:54;-1.10;99.90
1678;DHT22;6034;46.864;15.216;2024-01-11T09:17:22;-1.20;99.90
1678;DHT22;6034;46.864;15.216;2024-01-11T09:19:50;-1.30;99.90
1678;DHT22;6034;46.864;15.216;2024-01-11T09:22:17;-1.50;99.90
1678;DHT22;6034;46.864;15.216;2024-01-11T09:24:46;-1.60;99.90
1678;DHT22;6034;46.864;15.216;2024-01-11T09:27:14;-1.60;99.90
1678;DHT22;6034;46.864;15.216;2024-01-11T09:29:44;-1.70;99.90
1678;DHT22;6034;46.864;15.216;2024-01-11T09:32:12;-1.40;99.90
1678;DHT22;6034;46.864;15.216;2024-01-11T09:34:41;-1.40;99.90
1678;DHT22;6034;46.864;15.216;2024-01-11T09:37:11;-1.40;99.90
1678;DHT22;6034;46.864;15.216;2024-01-11T09:39:38;-1.30;99.90
1678;DHT22;6034;46.864;15.216;2024-01-11T09:42:09;-1.20;99.90
1678;DHT22;6034;46.864;15.216;2024-01-11T09:44:36;-1.20;99.90
1678;DHT22;6034;46.864;15.216;2024-01-11T09:47:06;-1.00;99.90
1678;DHT22;6034;46.864;15.216;2024-01-11T09:49:36;-0.80;99.90
1678;DHT22;6034;46.864;15.216;2024-01-11T09:52:05;-0.70;99.90
1678;DHT22;6034;46.864;15.216;2024-01-11T09:54:34;-0.80;99.90
1678;DHT22;6034;46.864;15.216;2024-01-11T09:57:03;-0.80;99.90
1678;DHT22;6034;46.864;15.216;2024-01-11T09:59:33;-0.80;99.90
1678;DHT22;6034;46.864;15.216;2024-01-11T10:02:02;-1.00;99.90
1678;DHT22;6034;46.864;15.216;2024-01-11T10:04:33;-0.80;99.90
1678;DHT22;6034;46.864;15.216;2024-01-11T10:07:03;-0.70;99.90
1678;DHT22;6034;46.864;15.216;2024-01-11T10:09:31;-0.60;99.90
1678;DHT22;6034;46.864;15.216;2024-01-11T10:11:59;-0.60;99.90
1678;DHT22;6034;46.864;15.216;2024-01-11T10:14:26;-0.60;99.90
1678;DHT22;6034;46.864;15.216;2024-01-11T10:16:55;-0.60;99.90
1678;DHT22;6034;46.864;15.216;2024-01-11T10:19:23;-0.60;99.90
1678;DHT22;6034;46.864;15.216;2024-01-11T10:21:50;-0.50;99.90
1678;DHT22;6034;46.864;15.216;2024-01-11T10:24:18;-0.30;99.90
1678;DHT22;6034;46.864;15.216;2024-01-11T10:26:46;-0.30;99.90
1678;DHT22;6034;46.864;15.216;2024-01-11T10:29:14;-0.10;99.90
1678;DHT22;6034;46.864;15.216;2024-01-11T10:31:43;-0.10;99.90
1678;DHT22;6034;46.864;15.216;2024-01-11T10:34:13;-0.10;99.90
1678;DHT22;6034;46.864;15.216;2024-01-11T10:36:40;-0.10;99.90
1678;DHT22;6034;46.864;15.216;2024-01-11T10:39:10;0.10;99.90
1678;DHT22;6034;46.864;15.216;2024-01-11T10:41:40;-0.10;99.90
1678;DHT22;6034;46.864;15.216;2024-01-11T10:44:11;0.00;99.90
1678;DHT22;6034;46.864;15.216;2024-01-11T10:46:46;0.10;99.90
1678;DHT22;6034;46.864;15.216;2024-01-11T10:49:18;0.20;99.90
1678;DHT22;6034;46.864;15.216;2024-01-11T10:51:52;0.30;99.90
1678;DHT22;6034;46.864;15.216;2024-01-11T10:54:20;0.50;99.90
1678;DHT22;6034;46.864;15.216;2024-01-11T10:56:49;0.50;99.90
1678;DHT22;6034;46.864;15.216;2024-01-11T10:59:20;0.50;99.90
1678;DHT22;6034;46.864;15.216;2024-01-11T11:01:52;0.60;99.90
1678;DHT22;6034;46.864;15.216;2024-01-11T11:04:23;0.70;99.90
1678;DHT22;6034;46.864;15.216;2024-01-11T11:06:52;0.80;99.90
1678;DHT22;6034;46.864;15.216;2024-01-11T11:09:23;0.70;99.90
1678;DHT22;6034;46.864;15.216;2024-01-11T11:11:54;0.80;99.90
1678;DHT22;6034;46.864;15.216;2024-01-11T11:14:24;0.80;99.90
1678;DHT22;6034;46.864;15.216;2024-01-11T11:16:52;0.90;99.90
1678;DHT22;6034;46.864;15.216;2024-01-11T11:19:20;1.00;99.90
1678;DHT22;6034;46.864;15.216;2024-01-11T11:37:06;0.00;99.90
1678;DHT22;6034;46.864;15.216;2024-01-11T11:39:33;1.20;99.90
1678;DHT22;6034;46.864;15.216;2024-01-11T11:42:00;1.20;99.90
1678;DHT22;6034;46.864;15.216;2024-01-11T11:44:29;1.20;99.90
1678;DHT22;6034;46.864;15.216;2024-01-11T11:47:17;1.30;99.90
1678;DHT22;6034;46.864;15.216;2024-01-11T11:49:58;1.30;99.90
1678;DHT22;6034;46.864;15.216;2024-01-11T11:52:33;1.20;99.90
1678;DHT22;6034;46.864;15.216;2024-01-11T11:55:01;1.40;99.90
1678;DHT22;6034;46.864;15.216;2024-01-11T11:57:29;1.40;99.90
1678;DHT22;6034;46.864;15.216;2024-01-11T11:59:58;1.50;99.90
1678;DHT22;6034;46.864;15.216;2024-01-11T12:02:26;1.60;99.90
1678;DHT22;6034;46.864;15.216;2024-01-11T12:04:55;1.70;99.90
1678;DHT22;6034;46.864;15.216;2024-01-11T12:07:22;1.80;99.90
1678;DHT22;6034;46.864;15.216;2024-01-11T12:09:52;1.80;99.90
1678;DHT22;6034;46.864;15.216;2024-01-11T12:12:19;1.90;99.90
1678;DHT22;6034;46.864;15.216;2024-01-11T12:14:47;1.80;99.90
1678;DHT22;6034;46.864;15.216;2024-01-11T12:17:15;1.90;99.90
1678;DHT22;6034;46.864;15.216;2024-01-11T12:19:44;2.00;99.90
1678;DHT22;6034;46.864;15.216;2024-01-11T12:22:11;2.00;99.90
1678;DHT22;6034;46.864;15.216;2024-01-11T12:24:44;2.10;99.90
1678;DHT22;6034;46.864;15.216;2024-01-11T12:27:14;2.00;99.90
1678;DHT22;6034;46.864;15.216;2024-01-11T12:29:42;2.10;99.90
1678;DHT22;6034;46.864;15.216;2024-01-11T12:32:10;2.10;99.90
1678;DHT22;6034;46.864;15.216;2024-01-11T12:34:38;2.10;99.90
1678;DHT22;6034;46.864;15.216;2024-01-11T12:37:06;2.00;99.90
1678;DHT22;6034;46.864;15.216;2024-01-11T12:39:37;1.90;99.90
1678;DHT22;6034;46.864;15.216;2024-01-11T12:42:05;1.90;99.90
1678;DHT22;6034;46.864;15.216;2024-01-11T12:44:35;2.00;99.90
1678;DHT22;6034;46.864;15.216;2024-01-11T12:47:04;1.80;99.90
1678;DHT22;6034;46.864;15.216;2024-01-11T12:49:32;1.80;99.90
1678;DHT22;6034;46.864;15.216;2024-01-11T12:51:59;1.80;99.90
1678;DHT22;6034;46.864;15.216;2024-01-11T12:54:26;2.00;99.90
1678;DHT22;6034;46.864;15.216;2024-01-11T12:56:54;2.00;99.90
1678;DHT22;6034;46.864;15.216;2024-01-11T12:59:25;2.10;99.90
1678;DHT22;6034;46.864;15.216;2024-01-11T13:01:55;2.10;99.90
1678;DHT22;6034;46.864;15.216;2024-01-11T13:04:25;2.20;99.80
1678;DHT22;6034;46.864;15.216;2024-01-11T13:06:53;2.20;99.90
1678;DHT22;6034;46.864;15.216;2024-01-11T13:09:21;2.30;99.90
1678;DHT22;6034;46.864;15.216;2024-01-11T13:11:49;2.40;99.90
1678;DHT22;6034;46.864;15.216;2024-01-11T13:14:16;2.30;99.90
1678;DHT22;6034;46.864;15.216;2024-01-11T13:16:45;2.40;99.90
1678;DHT22;6034;46.864;15.216;2024-01-11T13:19:15;2.30;99.50
1678;DHT22;6034;46.864;15.216;2024-01-11T13:21:43;2.40;99.70
1678;DHT22;6034;46.864;15.216;2024-01-11T13:24:10;2.40;99.50
1678;DHT22;6034;46.864;15.216;2024-01-11T13:26:38;2.40;98.50
1678;DHT22;6034;46.864;15.216;2024-01-11T13:29:06;2.50;99.00
1678;DHT22;6034;46.864;15.216;2024-01-11T13:31:33;2.50;98.80
1678;DHT22;6034;46.864;15.216;2024-01-11T13:34:01;2.40;98.90
1678;DHT22;6034;46.864;15.216;2024-01-11T13:36:31;2.50;99.30
1678;DHT22;6034;46.864;15.216;2024-01-11T13:38:58;2.50;99.30
1678;DHT22;6034;46.864;15.216;2024-01-11T13:41:26;2.50;99.70
1678;DHT22;6034;46.864;15.216;2024-01-11T13:43:53;2.60;99.90
1678;DHT22;6034;46.864;15.216;2024-01-11T13:46:21;2.60;99.90
1678;DHT22;6034;46.864;15.216;2024-01-11T13:48:49;2.60;99.90
1678;DHT22;6034;46.864;15.216;2024-01-11T13:51:16;2.70;99.90
1678;DHT22;6034;46.864;15.216;2024-01-11T13:53:45;2.70;99.90
1678;DHT22;6034;46.864;15.216;2024-01-11T13:56:13;2.70;99.90
1678;DHT22;6034;46.864;15.216;2024-01-11T13:58:40;2.60;99.90
1678;DHT22;6034;46.864;15.216;2024-01-11T14:01:11;2.70;99.90
1678;DHT22;6034;46.864;15.216;2024-01-11T14:03:39;2.60;99.90
1678;DHT22;6034;46.864;15.216;2024-01-11T14:06:06;2.50;99.90
1678;DHT22;6034;46.864;15.216;2024-01-11T14:08:34;2.50;99.90
1678;DHT22;6034;46.864;15.216;2024-01-11T14:11:03;2.50;99.90
1678;DHT22;6034;46.864;15.216;2024-01-11T14:13:30;2.50;99.90
1678;DHT22;6034;46.864;15.216;2024-01-11T14:15:58;2.50;99.90
1678;DHT22;6034;46.864;15.216;2024-01-11T14:18:26;2.50;99.90
1678;DHT22;6034;46.864;15.216;2024-01-11T14:20:53;2.50;99.90
1678;DHT22;6034;46.864;15.216;2024-01-11T14:23:20;2.40;99.90
1678;DHT22;6034;46.864;15.216;2024-01-11T14:25:48;2.30;99.90
1678;DHT22;6034;46.864;15.216;2024-01-11T14:28:17;2.30;99.90
1678;DHT22;6034;46.864;15.216;2024-01-11T14:30:44;2.30;99.90
1678;DHT22;6034;46.864;15.216;2024-01-11T14:33:12;2.40;99.90
1678;DHT22;6034;46.864;15.216;2024-01-11T14:35:39;2.40;99.90
1678;DHT22;6034;46.864;15.216;2024-01-11T14:38:06;2.40;99.90
1678;DHT22;6034;46.864;15.216;2024-01-11T14:40:34;2.30;99.90
1678;DHT22;6034;46.864;15.216;2024-01-11T14:43:01;2.30;99.90
1678;DHT22;6034;46.864;15.216;2024-01-11T14:45:31;2.30;99.90
1678;DHT22;6034;46.864;15.216;2024-01-11T14:47:58;2.20;99.90
1678;DHT22;6034;46.864;15.216;2024-01-11T14:50:26;2.20;99.90
1678;DHT22;6034;46.864;15.216;2024-01-11T14:52:54;2.20;99.90
1678;DHT22;6034;46.864;15.216;2024-01-11T14:55:21;2.20;99.90
1678;DHT22;6034;46.864;15.216;2024-01-11T14:57:49;2.20;99.90
1678;DHT22;6034;46.864;15.216;2024-01-11T15:00:17;2.20;99.90
1678;DHT22;6034;46.864;15.216;2024-01-11T15:02:46;2.10;99.90
1678;DHT22;6034;46.864;15.216;2024-01-11T15:05:15;2.10;99.90
1678;DHT22;6034;46.864;15.216;2024-01-11T15:07:44;2.10;99.90
1678;DHT22;6034;46.864;15.216;2024-01-11T15:10:11;2.10;99.90
1678;DHT22;6034;46.864;15.216;2024-01-11T15:12:39;2.00;99.90
1678;DHT22;6034;46.864;15.216;2024-01-11T15:15:07;1.80;99.90
1678;DHT22;6034;46.864;15.216;2024-01-11T15:17:35;1.80;99.90
1678;DHT22;6034;46.864;15.216;2024-01-11T15:20:05;1.90;99.90
1678;DHT22;6034;46.864;15.216;2024-01-11T15:22:32;1.80;99.90
1678;DHT22;6034;46.864;15.216;2024-01-11T15:25:00;1.80;99.90
1678;DHT22;6034;46.864;15.216;2024-01-11T15:27:27;1.80;99.90
1678;DHT22;6034;46.864;15.216;2024-01-11T15:29:55;1.60;99.90
1678;DHT22;6034;46.864;15.216;2024-01-11T15:32:22;1.50;99.90
1678;DHT22;6034;46.864;15.216;2024-01-11T15:34:50;1.50;99.90
1678;DHT22;6034;46.864;15.216;2024-01-11T15:37:20;1.60;99.90
1678;DHT22;6034;46.864;15.216;2024-01-11T15:39:49;1.60;99.90
1678;DHT22;6034;46.864;15.216;2024-01-11T15:42:17;1.50;99.90
1678;DHT22;6034;46.864;15.216;2024-01-11T15:44:46;1.40;99.90
1678;DHT22;6034;46.864;15.216;2024-01-11T15:47:13;1.30;99.90
1678;DHT22;6034;46.864;15.216;2024-01-11T15:49:41;1.20;99.90
1678;DHT22;6034;46.864;15.216;2024-01-11T15:52:08;1.10;99.90
1678;DHT22;6034;46.864;15.216;2024-01-11T15:54:37;1.10;99.90
1678;DHT22;6034;46.864;15.216;2024-01-11T15:57:04;1.10;99.90
1678;DHT22;6034;46.864;15.216;2024-01-11T15:59:32;1.20;99.90
1678;DHT22;6034;46.864;15.216;2024-01-11T16:02:00;1.30;99.90
1678;DHT22;6034;46.864;15.216;2024-01-11T16:04:27;1.30;99.90
1678;DHT22;6034;46.864;15.216;2024-01-11T16:06:54;1.30;99.90
1678;DHT22;6034;46.864;15.216;2024-01-11T16:09:22;1.30;99.90
1678;DHT22;6034;46.864;15.216;2024-01-11T16:11:51;1.20;99.90
1678;DHT22;6034;46.864;15.216;2024-01-11T16:14:19;1.20;99.90
1678;DHT22;6034;46.864;15.216;2024-01-11T16:16:46;1.20;99.90
1678;DHT22;6034;46.864;15.216;2024-01-11T16:19:13;1.00;99.90
1678;DHT22;6034;46.864;15.216;2024-01-11T16:21:41;1.10;99.90
1678;DHT22;6034;46.864;15.216;2024-01-11T16:24:08;1.00;99.90
1678;DHT22;6034;46.864;15.216;2024-01-11T16:26:36;0.90;99.90
1678;DHT22;6034;46.864;15.216;2024-01-11T16:29:05;0.80;99.90
1678;DHT22;6034;46.864;15.216;2024-01-11T16:31:32;0.80;99.90
1678;DHT22;6034;46.864;15.216;2024-01-11T16:33:59;0.70;99.90
1678;DHT22;6034;46.864;15.216;2024-01-11T16:36:27;0.70;99.90
1678;DHT22;6034;46.864;15.216;2024-01-11T16:38:54;0.70;99.90
1678;DHT22;6034;46.864;15.216;2024-01-11T16:41:22;0.70;99.90
1678;DHT22;6034;46.864;15.216;2024-01-11T16:43:50;0.70;99.90
1678;DHT22;6034;46.864;15.216;2024-01-11T16:46:19;0.60;99.90
1678;DHT22;6034;46.864;15.216;2024-01-11T16:48:47;0.60;99.90
1678;DHT22;6034;46.864;15.216;2024-01-11T16:51:14;0.70;99.90
1678;DHT22;6034;46.864;15.216;2024-01-11T16:53:41;0.60;99.90
1678;DHT22;6034;46.864;15.216;2024-01-11T16:56:09;0.60;99.90
1678;DHT22;6034;46.864;15.216;2024-01-11T16:58:36;0.70;99.90
1678;DHT22;6034;46.864;15.216;2024-01-11T17:01:04;0.60;99.90
1678;DHT22;6034;46.864;15.216;2024-01-11T17:03:33;0.70;99.90
1678;DHT22;6034;46.864;15.216;2024-01-11T17:06:00;0.70;99.90
1678;DHT22;6034;46.864;15.216;2024-01-11T17:08:28;0.70;99.90
1678;DHT22;6034;46.864;15.216;2024-01-11T17:10:55;0.60;99.90
1678;DHT22;6034;46.864;15.216;2024-01-11T17:13:23;0.60;99.90
1678;DHT22;6034;46.864;15.216;2024-01-11T17:15:50;0.60;99.90
1678;DHT22;6034;46.864;15.216;2024-01-11T17:18:18;0.70;99.90
1678;DHT22;6034;46.864;15.216;2024-01-11T17:20:47;0.70;99.90
1678;DHT22;6034;46.864;15.216;2024-01-11T17:23:14;0.60;99.90
1678;DHT22;6034;46.864;15.216;2024-01-11T17:25:43;0.70;99.90
1678;DHT22;6034;46.864;15.216;2024-01-11T17:28:11;0.70;99.90
1678;DHT22;6034;46.864;15.216;2024-01-11T17:30:38;0.70;99.90
1678;DHT22;6034;46.864;15.216;2024-01-11T17:33:05;0.60;99.90
1678;DHT22;6034;46.864;15.216;2024-01-11T17:35:33;0.60;99.90
1678;DHT22;6034;46.864;15.216;2024-01-11T17:38:01;0.50;99.90
1678;DHT22;6034;46.864;15.216;2024-01-11T17:40:29;0.50;99.90
1678;DHT22;6034;46.864;15.216;2024-01-11T17:42:57;0.40;99.90
1678;DHT22;6034;46.864;15.216;2024-01-11T17:45:25;0.50;99.90
1678;DHT22;6034;46.864;15.216;2024-01-11T17:47:53;0.60;99.90
1678;DHT22;6034;46.864;15.216;2024-01-11T17:50:21;0.60;99.90
1678;DHT22;6034;46.864;15.216;2024-01-11T17:52:48;0.40;99.90
1678;DHT22;6034;46.864;15.216;2024-01-11T17:55:17;0.40;99.90
1678;DHT22;6034;46.864;15.216;2024-01-11T17:57:46;0.50;99.90
1678;DHT22;6034;46.864;15.216;2024-01-11T18:00:14;0.50;99.90
1678;DHT22;6034;46.864;15.216;2024-01-11T18:02:41;0.40;99.90
1678;DHT22;6034;46.864;15.216;2024-01-11T18:05:09;0.30;99.90
1678;DHT22;6034;46.864;15.216;2024-01-11T18:07:36;0.10;99.90
1678;DHT22;6034;46.864;15.216;2024-01-11T18:10:04;0.10;99.90
1678;DHT22;6034;46.864;15.216;2024-01-11T18:12:34;0.10;99.90
1678;DHT22;6034;46.864;15.216;2024-01-11T18:15:01;0.20;99.90
1678;DHT22;6034;46.864;15.216;2024-01-11T18:17:28;0.30;99.90
1678;DHT22;6034;46.864;15.216;2024-01-11T18:19:56;0.40;99.90
1678;DHT22;6034;46.864;15.216;2024-01-11T18:22:23;0.30;99.90
1678;DHT22;6034;46.864;15.216;2024-01-11T18:24:52;0.30;99.90
1678;DHT22;6034;46.864;15.216;2024-01-11T18:27:22;0.30;99.90
1678;DHT22;6034;46.864;15.216;2024-01-11T18:29:56;0.30;99.90
1678;DHT22;6034;46.864;15.216;2024-01-11T18:32:23;0.30;99.90
1678;DHT22;6034;46.864;15.216;2024-01-11T18:34:50;0.30;99.90
1678;DHT22;6034;46.864;15.216;2024-01-11T18:37:18;0.30;99.90
1678;DHT22;6034;46.864;15.216;2024-01-11T18:39:45;0.40;99.90
1678;DHT22;6034;46.864;15.216;2024-01-11T18:42:13;0.30;99.90
1678;DHT22;6034;46.864;15.216;2024-01-11T18:44:40;0.40;99.90
1678;DHT22;6034;46.864;15.216;2024-01-11T18:47:10;0.40;99.90
1678;DHT22;6034;46.864;15.216;2024-01-11T18:49:38;0.30;99.90
1678;DHT22;6034;46.864;15.216;2024-01-11T18:52:05;0.30;99.90
1678;DHT22;6034;46.864;15.216;2024-01-11T18:54:32;0.40;99.90
1678;DHT22;6034;46.864;15.216;2024-01-11T18:57:00;0.30;99.90
1678;DHT22;6034;46.864;15.216;2024-01-11T18:59:27;0.20;99.90
1678;DHT22;6034;46.864;15.216;2024-01-11T19:01:56;0.20;99.90
1678;DHT22;6034;46.864;15.216;2024-01-11T19:04:25;0.20;99.90
1678;DHT22;6034;46.864;15.216;2024-01-11T19:06:53;0.20;99.90
1678;DHT22;6034;46.864;15.216;2024-01-11T19:09:20;0.10;99.90
1678;DHT22;6034;46.864;15.216;2024-01-11T19:11:49;0.20;99.90
1678;DHT22;6034;46.864;15.216;2024-01-11T19:14:17;0.30;99.90
1678;DHT22;6034;46.864;15.216;2024-01-11T19:16:45;0.30;99.90
1678;DHT22;6034;46.864;15.216;2024-01-11T19:19:13;0.30;99.90
1678;DHT22;6034;46.864;15.216;2024-01-11T19:21:41;0.40;99.90
1678;DHT22;6034;46.864;15.216;2024-01-11T19:24:09;0.30;99.90
1678;DHT22;6034;46.864;15.216;2024-01-11T19:26:39;0.40;99.90
1678;DHT22;6034;46.864;15.216;2024-01-11T19:29:08;0.40;99.90
1678;DHT22;6034;46.864;15.216;2024-01-11T19:31:35;0.40;99.90
1678;DHT22;6034;46.864;15.216;2024-01-11T19:34:03;0.50;99.90
1678;DHT22;6034;46.864;15.216;2024-01-11T19:36:30;0.40;99.90
1678;DHT22;6034;46.864;15.216;2024-01-11T19:38:59;0.40;99.90
1678;DHT22;6034;46.864;15.216;2024-01-11T19:41:29;0.40;99.90
1678;DHT22;6034;46.864;15.216;2024-01-11T19:43:57;0.40;99.90
1678;DHT22;6034;46.864;15.216;2024-01-11T19:46:25;0.40;99.90
1678;DHT22;6034;46.864;15.216;2024-01-11T19:48:53;0.40;99.90
1678;DHT22;6034;46.864;15.216;2024-01-11T19:51:20;0.40;99.90
1678;DHT22;6034;46.864;15.216;2024-01-11T19:53:48;0.30;99.90
1678;DHT22;6034;46.864;15.216;2024-01-11T19:56:17;0.40;99.90
1678;DHT22;6034;46.864;15.216;2024-01-11T19:58:45;0.40;99.90
1678;DHT22;6034;46.864;15.216;2024-01-11T20:01:14;0.20;99.90
1678;DHT22;6034;46.864;15.216;2024-01-11T20:03:42;0.30;99.90
1678;DHT22;6034;46.864;15.216;2024-01-11T20:06:10;0.30;99.90
1678;DHT22;6034;46.864;15.216;2024-01-11T20:08:38;0.30;99.90
1678;DHT22;6034;46.864;15.216;2024-01-11T20:11:05;0.40;99.90
1678;DHT22;6034;46.864;15.216;2024-01-11T20:13:35;0.40;99.90
1678;DHT22;6034;46.864;15.216;2024-01-11T20:16:02;0.40;99.90
1678;DHT22;6034;46.864;15.216;2024-01-11T20:18:30;0.40;99.90
1678;DHT22;6034;46.864;15.216;2024-01-11T20:20:58;0.40;99.90
1678;DHT22;6034;46.864;15.216;2024-01-11T20:23:25;0.40;99.90
1678;DHT22;6034;46.864;15.216;2024-01-11T20:25:53;0.50;99.90
1678;DHT22;6034;46.864;15.216;2024-01-11T20:28:20;0.50;99.90
1678;DHT22;6034;46.864;15.216;2024-01-11T20:30:49;0.50;99.90
1678;DHT22;6034;46.864;15.216;2024-01-11T20:33:16;0.50;99.90
1678;DHT22;6034;46.864;15.216;2024-01-11T20:35:44;0.60;99.90
1678;DHT22;6034;46.864;15.216;2024-01-11T20:38:11;0.60;99.90
1678;DHT22;6034;46.864;15.216;2024-01-11T20:40:40;0.50;99.90
1678;DHT22;6034;46.864;15.216;2024-01-11T20:43:07;0.70;99.90
1678;DHT22;6034;46.864;15.216;2024-01-11T20:45:35;0.70;99.90
1678;DHT22;6034;46.864;15.216;2024-01-11T20:48:05;0.50;99.90
1678;DHT22;6034;46.864;15.216;2024-01-11T20:50:32;0.50;99.90
1678;DHT22;6034;46.864;15.216;2024-01-11T20:52:59;0.50;99.90
1678;DHT22;6034;46.864;15.216;2024-01-11T20:55:27;0.50;99.90
1678;DHT22;6034;46.864;15.216;2024-01-11T20:57:55;0.40;99.90
1678;DHT22;6034;46.864;15.216;2024-01-11T21:00:23;0.40;99.90
1678;DHT22;6034;46.864;15.216;2024-01-11T21:02:52;0.20;99.90
1678;DHT22;6034;46.864;15.216;2024-01-11T21:05:23;0.20;99.90
1678;DHT22;6034;46.864;15.216;2024-01-11T21:07:51;0.30;99.90
1678;DHT22;6034;46.864;15.216;2024-01-11T21:10:18;0.40;99.90
1678;DHT22;6034;46.864;15.216;2024-01-11T21:12:45;0.30;99.90
1678;DHT22;6034;46.864;15.216;2024-01-11T21:15:16;0.30;99.90
1678;DHT22;6034;46.864;15.216;2024-01-11T21:17:43;0.40;99.90
1678;DHT22;6034;46.864;15.216;2024-01-11T21:20:11;0.40;99.90
1678;DHT22;6034;46.864;15.216;2024-01-11T21:22:39;0.30;99.90
1678;DHT22;6034;46.864;15.216;2024-01-11T21:25:08;0.40;99.90
1678;DHT22;6034;46.864;15.216;2024-01-11T21:27:35;0.40;99.90
1678;DHT22;6034;46.864;15.216;2024-01-11T21:30:03;0.40;99.90
1678;DHT22;6034;46.864;15.216;2024-01-11T21:32:31;0.40;99.90
1678;DHT22;6034;46.864;15.216;2024-01-11T21:34:58;0.50;99.90
1678;DHT22;6034;46.864;15.216;2024-01-11T21:37:25;0.50;99.90
1678;DHT22;6034;46.864;15.216;2024-01-11T21:39:54;0.50;99.90
1678;DHT22;6034;46.864;15.216;2024-01-11T21:42:22;0.40;99.90
1678;DHT22;6034;46.864;15.216;2024-01-11T21:44:51;0.30;99.90
1678;DHT22;6034;46.864;15.216;2024-01-11T21:47:19;0.40;99.90
1678;DHT22;6034;46.864;15.216;2024-01-11T21:49:46;0.40;99.90
1678;DHT22;6034;46.864;15.216;2024-01-11T21:52:13;0.30;99.90
1678;DHT22;6034;46.864;15.216;2024-01-11T21:54:41;0.10;99.90
1678;DHT22;6034;46.864;15.216;2024-01-11T21:57:11;-0.10;99.90
1678;DHT22;6034;46.864;15.216;2024-01-11T21:59:38;-0.10;99.90
1678;DHT22;6034;46.864;15.216;2024-01-11T22:02:05;0.10;99.90
1678;DHT22;6034;46.864;15.216;2024-01-11T22:04:33;0.00;99.90
1678;DHT22;6034;46.864;15.216;2024-01-11T22:07:00;0.20;99.90
1678;DHT22;6034;46.864;15.216;2024-01-11T22:09:27;0.20;99.90
1678;DHT22;6034;46.864;15.216;2024-01-11T22:11:54;0.10;99.90
1678;DHT22;6034;46.864;15.216;2024-01-11T22:14:23;0.00;99.90
1678;DHT22;6034;46.864;15.216;2024-01-11T22:16:51;0.10;99.90
1678;DHT22;6034;46.864;15.216;2024-01-11T22:19:18;0.10;99.90